CheckWX is a tool to help pilots better visualize weather data.  It is not intended as a substitute for an official pre-flight weather briefing.

19:55:54 UTC

KBCE TAF
Bryce Canyon Airport
Bryce Canyon, Utah, USA
KBCE 251723Z 2518/2618 30006KT P6SM FEW150 FM252000 34007KT P6SM FEW100 BKN200 FM252300 29010KT P6SM -SHRA VCTS SCT070 BKN100CB FM260200 27007KT P6SM VCSH SCT150 FM261600 22012G18KT P6SM SCT100

Apr-25@
18:00 UTC

Apr-25 @ 18:00 UTC

Apr-25@
20:00 UTC

Apr-25 @ 20:00 UTC

KBCE 251723Z 2518/2618 30006KT P6SM FEW150
Wind
  • 300° at 6 KTS
Cloud Levels
  • Few at 15,000' AGL

Apr-25@
20:00 UTC

Apr-25 @ 20:00 UTC

Apr-25@
23:00 UTC

Apr-25 @ 23:00 UTC

FM252000 34007KT P6SM FEW100 BKN200

From

From Standard forecast or significant change

Wind
  • 340° at 7 KTS
Cloud Levels
  • Few at 10,000' AGL
  • Broken at 20,000' AGL

Apr-25@
23:00 UTC

Apr-25 @ 23:00 UTC

Apr-26@
02:00 UTC

Apr-26 @ 02:00 UTC

FM252300 29010KT P6SM -SHRA VCTS SCT070 BKN100CB

From

From Standard forecast or significant change

Wind
  • 290° at 10 KTS
Conditions
Light Rain, Area Thunderstorm
Cloud Levels
  • Scattered at 7,000' AGL
  • Broken at 10,000' AGL

Apr-26@
02:00 UTC

Apr-26 @ 02:00 UTC

Apr-26@
16:00 UTC

Apr-26 @ 16:00 UTC

FM260200 27007KT P6SM VCSH SCT150

From

From Standard forecast or significant change

Wind
  • 270° at 7 KTS
Cloud Levels
  • Scattered at 15,000' AGL

Apr-26@
16:00 UTC

Apr-26 @ 16:00 UTC

Apr-26@
18:00 UTC

Apr-26 @ 18:00 UTC

FM261600 22012G18KT P6SM SCT100

From

From Standard forecast or significant change

Wind
  • 220° at 12 KTS
  • {Gusting to 18 KTS
Cloud Levels
  • Scattered at 10,000' AGL